Time;durP1;ratioP1;P1;durP2;ratioP2;P2;SDS_P1;SDS_P2;PMS_P1;PMS_P2;Temp;Humidity;BMP_temperature;BMP_pressure;BME280_temperature;BME280_humidity;BME280_pressure;Samples;Min_cycle;Max_cycle;Signal;HPM_P1;HPM_P2
2023/01/28 00:00:52;;;;;;;;;;;;;;;21.22;35.81;100466.92;106074;1287;61228;-84
2023/01/28 00:03:19;;;;;;;;;;;;;;;21.21;35.93;100464.70;106245;1284;61353;-84
2023/01/28 00:05:45;;;;;;;;;;;;;;;21.22;35.96;100466.58;106267;1284;61230;-84
2023/01/28 00:08:12;;;;;;;;;;;;;;;21.22;36.04;100471.05;105983;1288;59283;-84
2023/01/28 00:10:38;;;;;;;;;;;;;;;21.21;36.04;100470.05;106083;1287;61272;-84
2023/01/28 00:13:04;;;;;;;;;;;;;;;21.22;36.05;100467.27;105992;1282;61312;-84
2023/01/28 00:15:30;;;;;;;;;;;;;;;21.22;35.93;100468.70;106101;1282;61139;-83
2023/01/28 00:17:55;;;;;;;;;;;;;;;21.22;36.06;100468.51;106077;1282;61448;-84
2023/01/28 00:20:21;;;;;;;;;;;;;;;21.23;35.88;100469.19;106020;1282;61340;-84
2023/01/28 00:22:49;;;;;;;;;;;;;;;21.23;35.96;100470.09;105989;1286;61251;-84
2023/01/28 00:25:15;;;;;;;;;;;;;;;21.23;36.03;100468.66;106213;1282;61767;-84
2023/01/28 00:27:41;;;;;;;;;;;;;;;21.23;35.97;100476.52;106078;1282;61286;-84
2023/01/28 00:30:06;;;;;;;;;;;;;;;21.23;36.01;100474.74;106236;1287;61299;-84
2023/01/28 00:32:32;;;;;;;;;;;;;;;21.23;36.02;100472.59;105975;1290;61304;-84
2023/01/28 00:34:57;;;;;;;;;;;;;;;21.23;36.06;100475.26;106205;1286;61372;-84
2023/01/28 00:37:23;;;;;;;;;;;;;;;21.24;36.12;100475.23;106245;1282;61257;-84
2023/01/28 00:39:49;;;;;;;;;;;;;;;21.23;36.05;100474.52;106215;1282;61321;-84
2023/01/28 00:42:15;;;;;;;;;;;;;;;21.24;36.12;100479.70;106189;1282;61265;-84
2023/01/28 00:44:40;;;;;;;;;;;;;;;21.23;36.02;100481.32;106224;1282;61372;-84
2023/01/28 00:47:06;;;;;;;;;;;;;;;21.24;36.03;100481.30;106018;1288;61360;-84
2023/01/28 00:49:32;;;;;;;;;;;;;;;21.24;36.14;100483.96;106209;1287;61284;-84
2023/01/28 00:52:22;;;;;;;;;;;;;;;21.24;36.07;100484.29;106111;1283;61784;-84
2023/01/28 00:54:48;;;;;;;;;;;;;;;21.25;36.06;100480.14;105665;1286;72565;-84
2023/01/28 00:57:14;;;;;;;;;;;;;;;21.25;36.09;100482.99;105452;1287;61387;-84
2023/01/28 00:59:40;;;;;;;;;;;;;;;21.25;36.04;100479.40;105573;1288;61265;-84
2023/01/28 01:02:11;;;;;;;;;;;;;;;21.25;36.06;100480.09;105693;1286;61284;-84
2023/01/28 01:04:37;;;;;;;;;;;;;;;21.26;36.20;100478.30;105686;1286;73778;-84
2023/01/28 01:07:03;;;;;;;;;;;;;;;21.26;36.19;100480.61;105461;1293;61437;-83
2023/01/28 01:09:28;;;;;;;;;;;;;;;21.26;36.00;100481.71;105604;1286;61338;-83
2023/01/28 01:11:54;;;;;;;;;;;;;;;21.25;35.93;100484.57;105583;1289;61443;-85
2023/01/28 01:14:20;;;;;;;;;;;;;;;21.26;36.05;100483.48;105593;1287;61277;-84
2023/01/28 01:16:46;;;;;;;;;;;;;;;21.26;36.04;100485.44;105663;1291;61286;-84
2023/01/28 01:19:12;;;;;;;;;;;;;;;21.26;36.18;100481.33;105602;1291;59323;-85
2023/01/28 01:21:37;;;;;;;;;;;;;;;21.26;36.10;100481.66;105666;1288;61164;-84
2023/01/28 01:24:03;;;;;;;;;;;;;;;21.26;36.24;100480.78;105468;1289;60349;-83
2023/01/28 01:26:28;;;;;;;;;;;;;;;21.26;36.16;100475.20;105027;1292;730522;-84
2023/01/28 01:28:54;;;;;;;;;;;;;;;21.26;36.17;100471.62;105674;1289;61433;-84
2023/01/28 01:31:20;;;;;;;;;;;;;;;21.26;36.21;100472.33;105677;1292;61481;-84
2023/01/28 01:33:46;;;;;;;;;;;;;;;21.27;36.06;100472.84;106072;1284;61173;-84
2023/01/28 01:36:12;;;;;;;;;;;;;;;21.27;36.21;100475.13;106214;1282;61285;-84
2023/01/28 01:38:37;;;;;;;;;;;;;;;21.28;36.12;100477.45;106241;1283;61232;-83
2023/01/28 01:41:04;;;;;;;;;;;;;;;21.28;36.10;100477.08;106250;1286;61279;-86
2023/01/28 01:43:49;;;;;;;;;;;;;;;21.28;36.13;100484.77;106063;1283;61358;-84
2023/01/28 01:46:15;;;;;;;;;;;;;;;21.28;36.14;100484.25;106320;1282;61160;-84
2023/01/28 01:48:41;;;;;;;;;;;;;;;21.28;36.29;100487.42;106238;1284;72425;-83
2023/01/28 01:51:08;;;;;;;;;;;;;;;21.28;36.32;100485.13;106304;1284;61369;-84
2023/01/28 01:53:33;;;;;;;;;;;;;;;21.29;36.15;100488.61;106569;1282;59371;-84
2023/01/28 01:56:00;;;;;;;;;;;;;;;21.29;36.14;100488.25;106271;1283;61167;-84
2023/01/28 01:58:27;;;;;;;;;;;;;;;21.30;36.23;100490.52;106114;1288;61393;-84
2023/01/28 02:00:52;;;;;;;;;;;;;;;21.31;36.16;100491.16;106100;1288;61291;-84
2023/01/28 02:03:18;;;;;;;;;;;;;;;21.31;36.17;100487.74;106112;1288;61255;-85
2023/01/28 02:05:44;;;;;;;;;;;;;;;21.31;36.09;100485.80;106020;1288;61260;-84
2023/01/28 02:08:22;;;;;;;;;;;;;;;21.31;36.28;100484.73;106057;1283;61277;-84
2023/01/28 02:10:48;;;;;;;;;;;;;;;21.31;36.10;100485.80;106050;1286;74150;-84
2023/01/28 02:13:14;;;;;;;;;;;;;;;21.31;36.21;100484.18;106088;1283;61355;-85
2023/01/28 02:15:39;;;;;;;;;;;;;;;21.31;36.22;100485.23;105966;1283;61280;-84
2023/01/28 02:18:05;;;;;;;;;;;;;;;21.31;36.23;100492.36;106092;1288;61276;-84
2023/01/28 02:20:46;;;;;;;;;;;;;;;21.32;36.19;100498.41;106058;1282;61259;-84
2023/01/28 02:23:50;;;;;;;;;;;;;;;21.31;36.26;100497.58;106191;1286;61487;-84
2023/01/28 02:26:36;;;;;;;;;;;;;;;21.32;36.20;100498.27;105667;1286;60199;-84
2023/01/28 02:29:01;;;;;;;;;;;;;;;21.31;36.21;100504.89;105566;1286;73649;-84
2023/01/28 02:31:38;;;;;;;;;;;;;;;21.31;36.09;100501.70;105967;1286;61731;-84
2023/01/28 02:34:10;;;;;;;;;;;;;;;21.32;36.22;100501.29;106227;1283;61225;-83
2023/01/28 02:36:55;;;;;;;;;;;;;;;21.32;36.28;100503.98;106222;1283;60174;-83
2023/01/28 02:39:22;;;;;;;;;;;;;;;21.32;36.37;100504.48;105973;1283;72378;-84
2023/01/28 02:41:49;;;;;;;;;;;;;;;21.33;36.21;100503.20;106222;1283;74470;-84
2023/01/28 02:44:15;;;;;;;;;;;;;;;21.32;36.35;100501.25;105975;1282;61260;-84
2023/01/28 02:49:32;;;;;;;;;;;;;;;21.32;36.26;100501.98;106198;1286;72578;-84
2023/01/28 02:52:05;;;;;;;;;;;;;;;21.33;36.42;100502.46;106202;1282;74658;-84
2023/01/28 02:54:49;;;;;;;;;;;;;;;21.33;36.28;100505.17;106213;1283;61282;-84
2023/01/28 02:57:24;;;;;;;;;;;;;;;21.33;36.29;100510.70;106197;1286;61289;-84
2023/01/28 02:59:57;;;;;;;;;;;;;;;21.33;36.22;100511.36;106082;1287;72730;-84
2023/01/28 03:02:32;;;;;;;;;;;;;;;21.32;36.39;100506.78;106081;1282;74220;-84
2023/01/28 03:04:57;;;;;;;;;;;;;;;21.33;36.33;100507.61;106191;1283;61117;-84
2023/01/28 03:07:25;;;;;;;;;;;;;;;21.33;36.30;100510.47;106199;1283;61271;-84
2023/01/28 03:09:51;;;;;;;;;;;;;;;21.34;36.36;100509.73;106175;1282;72560;-84
2023/01/28 03:37:37;;;;;;;;;;;;;;;21.36;36.40;100511.18;106161;1282;60057;-84
2023/01/28 03:40:03;;;;;;;;;;;;;;;21.36;36.44;100511.70;106232;1286;61286;-84
2023/01/28 03:42:29;;;;;;;;;;;;;;;21.36;36.49;100509.73;106200;1283;72470;-84
2023/01/28 03:44:56;;;;;;;;;;;;;;;21.37;36.45;100512.33;106115;1283;60141;-84
2023/01/28 03:47:22;;;;;;;;;;;;;;;21.37;36.40;100515.53;106132;1282;61234;-84
2023/01/28 03:49:50;;;;;;;;;;;;;;;21.37;36.49;100517.90;106232;1283;61273;-84
2023/01/28 03:52:19;;;;;;;;;;;;;;;21.37;36.51;100516.95;106222;1283;72263;-84
2023/01/28 03:54:47;;;;;;;;;;;;;;;21.38;36.40;100521.94;105974;1283;75553;-84
2023/01/28 03:57:14;;;;;;;;;;;;;;;21.38;36.45;100521.96;106245;1282;61279;-84
2023/01/28 03:59:40;;;;;;;;;;;;;;;21.37;36.46;100521.25;106147;1282;61231;-84
2023/01/28 04:02:06;;;;;;;;;;;;;;;21.38;36.54;100527.66;106122;1283;61346;-84
2023/01/28 04:04:32;;;;;;;;;;;;;;;21.38;36.49;100533.73;106132;1283;61298;-84
2023/01/28 04:06:58;;;;;;;;;;;;;;;21.38;36.53;100540.00;106236;1283;61242;-84
2023/01/28 04:09:23;;;;;;;;;;;;;;;21.38;36.52;100543.19;106144;1282;61272;-84
2023/01/28 04:11:49;;;;;;;;;;;;;;;21.38;36.56;100540.89;106198;1282;61275;-84
2023/01/28 04:14:16;;;;;;;;;;;;;;;21.39;36.55;100547.97;106235;1282;61231;-84
2023/01/28 04:16:42;;;;;;;;;;;;;;;21.39;36.52;100551.03;106345;1283;61237;-84
2023/01/28 04:19:08;;;;;;;;;;;;;;;21.39;36.56;100554.40;106359;1282;61375;-84
2023/01/28 04:21:34;;;;;;;;;;;;;;;21.39;36.57;100553.14;106549;1282;61285;-84
2023/01/28 04:24:00;;;;;;;;;;;;;;;21.40;36.63;100555.05;106285;1282;61359;-84
2023/01/28 04:26:26;;;;;;;;;;;;;;;21.40;36.54;100558.96;106152;1283;61142;-84
2023/01/28 04:28:52;;;;;;;;;;;;;;;21.41;36.64;100559.63;106114;1282;61349;-84
2023/01/28 04:31:17;;;;;;;;;;;;;;;21.41;36.64;100561.22;106094;1282;61331;-86
2023/01/28 04:33:43;;;;;;;;;;;;;;;21.42;36.57;100556.52;106112;1282;61337;-84
2023/01/28 04:36:10;;;;;;;;;;;;;;;21.42;36.59;100560.86;106245;1282;61308;-84
2023/01/28 04:38:35;;;;;;;;;;;;;;;21.42;36.52;100563.18;105966;1287;74361;-84
2023/01/28 04:41:02;;;;;;;;;;;;;;;21.42;36.59;100565.48;106107;1283;61351;-83
2023/01/28 04:43:27;;;;;;;;;;;;;;;21.42;36.55;100566.38;106109;1282;61445;-83
2023/01/28 04:45:53;;;;;;;;;;;;;;;21.42;36.57;100570.51;106090;1282;61254;-83
2023/01/28 04:48:18;;;;;;;;;;;;;;;21.42;36.70;100571.92;106205;1283;61917;-84
2023/01/28 04:50:44;;;;;;;;;;;;;;;21.42;36.56;100574.23;106132;1283;61282;-84
2023/01/28 04:53:10;;;;;;;;;;;;;;;21.42;36.56;100571.74;106180;1282;61250;-84
2023/01/28 04:55:37;;;;;;;;;;;;;;;21.42;36.66;100578.34;105986;1282;59289;-83
2023/01/28 04:58:03;;;;;;;;;;;;;;;21.42;36.59;100580.50;106178;1282;72427;-84
2023/01/28 05:00:28;;;;;;;;;;;;;;;21.42;36.50;100589.08;106174;1286;61337;-84
2023/01/28 05:02:54;;;;;;;;;;;;;;;21.42;36.69;100591.23;106102;1282;61396;-84
2023/01/28 05:05:19;;;;;;;;;;;;;;;21.42;36.52;100596.96;106068;1287;61278;-84
2023/01/28 05:07:52;;;;;;;;;;;;;;;21.42;36.70;100596.59;106136;1282;61244;-83
2023/01/28 05:10:18;;;;;;;;;;;;;;;21.42;36.68;100598.20;105994;1282;73336;-84
2023/01/28 05:12:44;;;;;;;;;;;;;;;21.42;36.75;100597.33;106119;1287;61415;-84
2023/01/28 05:15:09;;;;;;;;;;;;;;;21.42;36.83;100599.62;106083;1282;61285;-84
2023/01/28 05:17:36;;;;;;;;;;;;;;;21.43;36.83;100601.20;106157;1282;61366;-84
2023/01/28 05:20:03;;;;;;;;;;;;;;;21.43;36.73;100602.28;106228;1282;61240;-84
2023/01/28 05:22:28;;;;;;;;;;;;;;;21.43;36.69;100604.05;106107;1282;61292;-84
2023/01/28 05:24:55;;;;;;;;;;;;;;;21.43;36.78;100607.48;106102;1287;61299;-83
2023/01/28 05:27:21;;;;;;;;;;;;;;;21.43;36.73;100608.70;106093;1282;61416;-84
2023/01/28 05:29:47;;;;;;;;;;;;;;;21.43;36.70;100613.01;106101;1282;61350;-84
2023/01/28 05:32:12;;;;;;;;;;;;;;;21.43;36.84;100612.46;106076;1282;61327;-84
2023/01/28 05:34:38;;;;;;;;;;;;;;;21.43;36.68;100615.14;106034;1282;61396;-84
2023/01/28 05:37:03;;;;;;;;;;;;;;;21.44;36.61;100622.98;106147;1282;61273;-84
2023/01/28 05:39:30;;;;;;;;;;;;;;;21.44;36.62;100627.10;106198;1282;61344;-84
2023/01/28 05:41:55;;;;;;;;;;;;;;;21.44;36.71;100626.90;106213;1282;61363;-84
2023/01/28 05:44:21;;;;;;;;;;;;;;;21.44;36.84;100627.98;106059;1282;60039;-84
2023/01/28 05:46:46;;;;;;;;;;;;;;;21.45;36.77;100626.02;105996;1287;61403;-84
2023/01/28 05:49:13;;;;;;;;;;;;;;;21.45;36.87;100626.13;106232;1282;61301;-84
2023/01/28 05:51:39;;;;;;;;;;;;;;;21.45;36.81;100634.38;106173;1282;61417;-84
2023/01/28 05:54:08;;;;;;;;;;;;;;;21.45;36.74;100638.48;106087;1282;60086;-84
2023/01/28 05:56:35;;;;;;;;;;;;;;;21.45;36.68;100642.94;106143;1282;74227;-84
2023/01/28 05:59:01;;;;;;;;;;;;;;;21.45;36.74;100644.02;106126;1282;61256;-84
2023/01/28 06:01:29;;;;;;;;;;;;;;;21.46;36.86;100639.67;106134;1282;61228;-84
2023/01/28 06:03:54;;;;;;;;;;;;;;;21.46;36.86;100646.45;106210;1283;72519;-83
2023/01/28 06:06:20;;;;;;;;;;;;;;;21.46;36.79;100650.04;106238;1284;61230;-84
2023/01/28 06:08:45;;;;;;;;;;;;;;;21.46;36.81;100649.13;106152;1282;61337;-84
2023/01/28 06:11:11;;;;;;;;;;;;;;;21.47;36.83;100652.48;106218;1282;61269;-84
2023/01/28 06:13:36;;;;;;;;;;;;;;;21.47;36.77;100658.73;106056;1283;61246;-84
2023/01/28 06:16:02;;;;;;;;;;;;;;;21.47;36.78;100664.48;106152;1282;72446;-83
2023/01/28 06:18:28;;;;;;;;;;;;;;;21.47;37.00;100671.78;106106;1282;61253;-83
2023/01/28 06:20:53;;;;;;;;;;;;;;;21.47;36.88;100672.34;106151;1282;61275;-83
2023/01/28 06:23:19;;;;;;;;;;;;;;;21.48;36.83;100674.09;106144;1282;59368;-83
2023/01/28 06:25:44;;;;;;;;;;;;;;;21.48;36.87;100678.16;106191;1282;61284;-83
2023/01/28 06:28:10;;;;;;;;;;;;;;;21.48;36.80;100681.77;106203;1282;71374;-83
2023/01/28 06:30:36;;;;;;;;;;;;;;;21.48;36.86;100680.16;106111;1282;61338;-84
2023/01/28 06:33:01;;;;;;;;;;;;;;;21.49;36.84;100689.05;106240;1286;59281;-83
2023/01/28 06:35:28;;;;;;;;;;;;;;;21.50;36.78;100688.64;106182;1282;61125;-83
2023/01/28 06:37:53;;;;;;;;;;;;;;;21.49;36.90;100690.08;106254;1282;61283;-83
2023/01/28 06:40:19;;;;;;;;;;;;;;;21.50;36.74;100693.09;106144;1282;61300;-83
2023/01/28 06:42:45;;;;;;;;;;;;;;;21.51;37.02;100697.34;106220;1283;61301;-83
2023/01/28 06:45:10;;;;;;;;;;;;;;;21.51;36.94;100701.41;106272;1282;61111;-83
2023/01/28 06:47:37;;;;;;;;;;;;;;;21.51;36.94;100702.15;106402;1282;61293;-83
2023/01/28 06:50:03;;;;;;;;;;;;;;;21.51;36.85;100705.88;106626;1282;61267;-83
2023/01/28 06:52:28;;;;;;;;;;;;;;;21.52;37.06;100708.67;106203;1282;61250;-83
2023/01/28 06:54:55;;;;;;;;;;;;;;;21.53;37.01;100709.55;106137;1282;61451;-84
2023/01/28 06:57:21;;;;;;;;;;;;;;;21.53;36.85;100711.30;105982;1282;61260;-84
2023/01/28 06:59:47;;;;;;;;;;;;;;;21.54;36.82;100717.52;106117;1282;61205;-83
2023/01/28 07:02:15;;;;;;;;;;;;;;;21.54;36.89;100721.45;106118;1282;61347;-83
2023/01/28 07:04:40;;;;;;;;;;;;;;;21.54;37.07;100726.45;106134;1282;61410;-84
2023/01/28 07:07:06;;;;;;;;;;;;;;;21.55;37.01;100732.45;106096;1282;61263;-85
2023/01/28 07:09:55;;;;;;;;;;;;;;;21.56;36.92;100730.99;106032;1282;61256;-84
2023/01/28 07:12:20;;;;;;;;;;;;;;;21.55;36.97;100731.02;105680;1288;72257;-84
2023/01/28 07:14:46;;;;;;;;;;;;;;;21.56;36.91;100734.39;105550;1287;61327;-84
2023/01/28 07:17:11;;;;;;;;;;;;;;;21.56;37.01;100742.79;105728;1286;61391;-84
2023/01/28 07:19:37;;;;;;;;;;;;;;;21.56;36.96;100745.65;105553;1286;61292;-84
2023/01/28 07:22:04;;;;;;;;;;;;;;;21.56;37.06;100744.42;105487;1286;61437;-84
2023/01/28 07:24:29;;;;;;;;;;;;;;;21.56;36.96;100748.90;105552;1286;71970;-84
2023/01/28 07:26:55;;;;;;;;;;;;;;;21.56;36.94;100754.60;105558;1286;61401;-84
2023/01/28 07:29:20;;;;;;;;;;;;;;;21.56;36.87;100756.40;105490;1286;61327;-84
2023/01/28 07:31:46;;;;;;;;;;;;;;;21.56;36.87;100762.45;105543;1286;61384;-84
2023/01/28 07:34:12;;;;;;;;;;;;;;;21.57;37.04;100760.45;105499;1288;61290;-85
2023/01/28 07:36:38;;;;;;;;;;;;;;;21.57;36.90;100763.14;105553;1292;73372;-84
2023/01/28 07:39:06;;;;;;;;;;;;;;;21.56;36.90;100764.60;105679;1287;61255;-84
2023/01/28 07:41:32;;;;;;;;;;;;;;;21.57;36.99;100764.40;105708;1286;61302;-83
2023/01/28 07:43:57;;;;;;;;;;;;;;;21.57;36.92;100771.00;105706;1286;61311;-84
2023/01/28 07:46:23;;;;;;;;;;;;;;;21.57;37.03;100770.84;105477;1289;61309;-84
2023/01/28 07:48:48;;;;;;;;;;;;;;;21.57;36.79;100770.46;105725;1286;61288;-84
2023/01/28 07:51:14;;;;;;;;;;;;;;;21.57;36.89;100773.85;106136;1282;61292;-84
2023/01/28 07:53:39;;;;;;;;;;;;;;;21.57;36.92;100771.16;106123;1282;61098;-84
2023/01/28 07:56:05;;;;;;;;;;;;;;;21.58;37.05;100777.58;106114;1282;61269;-84
2023/01/28 07:58:33;;;;;;;;;;;;;;;21.58;37.01;100778.65;106105;1282;61265;-84
2023/01/28 08:01:01;;;;;;;;;;;;;;;21.58;36.98;100780.44;106079;1282;74471;-84
2023/01/28 08:03:27;;;;;;;;;;;;;;;21.58;37.03;100778.66;105973;1282;61138;-84
2023/01/28 08:05:53;;;;;;;;;;;;;;;21.58;36.94;100783.64;106203;1282;61362;-84
2023/01/28 08:08:19;;;;;;;;;;;;;;;21.58;36.96;100788.30;106080;1282;61239;-84
2023/01/28 08:10:46;;;;;;;;;;;;;;;21.58;36.98;100790.05;106106;1282;61358;-84
2023/01/28 08:13:14;;;;;;;;;;;;;;;21.59;37.06;100792.20;105989;1282;61345;-84
2023/01/28 08:15:39;;;;;;;;;;;;;;;21.58;36.92;100796.50;106200;1282;61140;-84
2023/01/28 08:18:06;;;;;;;;;;;;;;;21.59;36.89;100800.41;105969;1282;61279;-84
2023/01/28 08:20:32;;;;;;;;;;;;;;;21.58;36.96;100802.95;106118;1282;61335;-84
2023/01/28 08:23:06;;;;;;;;;;;;;;;21.59;37.08;100806.35;105981;1282;61395;-85
2023/01/28 08:25:32;;;;;;;;;;;;;;;21.59;36.93;100811.33;106158;1282;61142;-84
2023/01/28 08:27:58;;;;;;;;;;;;;;;21.59;36.92;100817.59;105984;1282;61294;-84
2023/01/28 08:30:23;;;;;;;;;;;;;;;21.59;36.95;100817.42;106083;1282;61381;-84
2023/01/28 08:32:49;;;;;;;;;;;;;;;21.59;37.00;100822.77;106116;1282;61394;-84
2023/01/28 08:35:15;;;;;;;;;;;;;;;21.59;36.98;100825.65;106111;1282;61367;-84
2023/01/28 08:37:41;;;;;;;;;;;;;;;21.59;36.98;100822.22;106122;1282;61446;-85
2023/01/28 08:40:07;;;;;;;;;;;;;;;21.60;37.02;100829.16;106074;1282;73384;-85
2023/01/28 08:42:33;;;;;;;;;;;;;;;21.60;36.95;100830.98;106172;1282;61309;-84
2023/01/28 08:44:58;;;;;;;;;;;;;;;21.60;36.93;100839.35;106071;1282;61298;-84
2023/01/28 08:47:24;;;;;;;;;;;;;;;21.60;36.96;100832.38;106154;1282;61311;-84
2023/01/28 08:49:50;;;;;;;;;;;;;;;21.60;36.92;100833.27;106103;1282;61283;-84
2023/01/28 08:52:15;;;;;;;;;;;;;;;21.61;37.05;100836.30;106220;1282;61298;-84
2023/01/28 08:54:41;;;;;;;;;;;;;;;21.61;37.04;100834.83;106197;1282;74551;-84
2023/01/28 08:57:06;;;;;;;;;;;;;;;21.60;36.98;100839.15;106184;1282;61782;-84
2023/01/28 08:59:32;;;;;;;;;;;;;;;21.62;37.03;100835.52;106190;1282;61259;-84
2023/01/28 09:01:57;;;;;;;;;;;;;;;21.62;37.06;100830.32;106217;1282;61278;-84
2023/01/28 09:04:24;;;;;;;;;;;;;;;21.62;36.97;100829.93;106215;1282;61356;-84
2023/01/28 09:06:49;;;;;;;;;;;;;;;21.63;36.89;100831.15;106240;1282;75223;-84
2023/01/28 09:09:15;;;;;;;;;;;;;;;21.63;36.94;100837.05;106293;1282;61372;-84
2023/01/28 09:11:40;;;;;;;;;;;;;;;21.62;37.15;100839.05;106320;1282;61269;-85
2023/01/28 09:14:06;;;;;;;;;;;;;;;21.63;37.02;100837.74;106362;1282;59328;-84
2023/01/28 09:16:32;;;;;;;;;;;;;;;21.64;37.02;100833.59;106519;1282;61335;-84
2023/01/28 09:18:58;;;;;;;;;;;;;;;21.64;37.04;100824.79;106442;1282;61558;-84
2023/01/28 09:21:24;;;;;;;;;;;;;;;21.65;37.08;100822.61;106102;1282;61219;-84
2023/01/28 09:23:49;;;;;;;;;;;;;;;21.65;36.99;100823.46;106149;1282;61349;-84
2023/01/28 09:26:15;;;;;;;;;;;;;;;21.66;37.09;100826.81;106115;1282;61385;-84
2023/01/28 09:28:40;;;;;;;;;;;;;;;21.65;36.96;100824.14;106097;1282;61293;-84
2023/01/28 09:31:08;;;;;;;;;;;;;;;21.65;37.15;100822.70;106095;1282;61372;-83
2023/01/28 09:33:33;;;;;;;;;;;;;;;21.66;37.08;100821.77;106097;1282;61285;-83
2023/01/28 09:36:00;;;;;;;;;;;;;;;21.66;37.04;100816.05;106211;1282;61263;-85
2023/01/28 09:38:25;;;;;;;;;;;;;;;21.66;36.98;100818.20;106106;1282;72338;-84
2023/01/28 09:40:54;;;;;;;;;;;;;;;21.66;37.03;100815.70;105952;1282;61257;-83
2023/01/28 09:43:41;;;;;;;;;;;;;;;21.66;36.92;100816.39;106182;1282;61279;-83
2023/01/28 09:46:09;;;;;;;;;;;;;;;21.66;37.08;100815.11;106184;1282;61160;-83
2023/01/28 09:48:39;;;;;;;;;;;;;;;21.67;36.96;100815.98;105950;1285;72513;-83
2023/01/28 09:51:30;;;;;;;;;;;;;;;21.67;37.04;100815.09;105822;1286;75569;-84
2023/01/28 09:53:57;;;;;;;;;;;;;;;21.67;37.06;100815.09;105384;1289;61342;-83
2023/01/28 09:56:33;;;;;;;;;;;;;;;21.67;36.98;100813.47;105401;1290;61193;-84
2023/01/28 09:59:12;;;;;;;;;;;;;;;21.67;36.96;100813.79;105413;1290;72402;-84
2023/01/28 10:01:38;;;;;;;;;;;;;;;21.68;37.15;100817.88;105469;1290;74550;-84
2023/01/28 10:04:22;;;;;;;;;;;;;;;21.68;37.02;100818.77;105444;1289;61343;-83
2023/01/28 10:06:48;;;;;;;;;;;;;;;21.67;37.09;100823.44;105497;1289;60283;-83
2023/01/28 10:09:22;;;;;;;;;;;;;;;21.67;37.10;100819.34;105426;1294;61272;-83
2023/01/28 10:12:03;;;;;;;;;;;;;;;21.68;37.09;100814.99;105379;1292;75633;-83
2023/01/28 10:14:38;;;;;;;;;;;;;;;21.68;37.05;100816.26;105486;1289;61140;-83
2023/01/28 10:17:06;;;;;;;;;;;;;;;21.68;37.00;100809.98;105402;1289;61144;-84
2023/01/28 10:19:34;;;;;;;;;;;;;;;21.68;37.18;100809.96;105437;1289;72448;-84
2023/01/28 10:22:03;;;;;;;;;;;;;;;21.68;37.07;100813.71;105422;1290;75597;-84
2023/01/28 10:24:30;;;;;;;;;;;;;;;21.68;37.06;100812.10;105424;1289;61259;-84
2023/01/28 10:26:56;;;;;;;;;;;;;;;21.68;37.11;100808.55;105340;1290;61198;-84
2023/01/28 10:29:25;;;;;;;;;;;;;;;21.68;37.13;100807.98;105463;1293;61418;-83
2023/01/28 10:31:52;;;;;;;;;;;;;;;21.68;37.16;100802.79;105971;1282;75382;-83
2023/01/28 10:34:17;;;;;;;;;;;;;;;21.68;37.08;100803.86;106107;1282;61806;-83
2023/01/28 10:36:46;;;;;;;;;;;;;;;21.68;37.00;100803.50;106230;1282;61352;-83
2023/01/28 10:39:15;;;;;;;;;;;;;;;21.68;37.04;100800.10;106063;1282;72783;-83
2023/01/28 10:41:42;;;;;;;;;;;;;;;21.69;36.91;100804.39;105796;1284;73317;-83
2023/01/28 10:44:18;;;;;;;;;;;;;;;21.69;37.13;100805.27;106168;1283;59756;-83
2023/01/28 10:46:45;;;;;;;;;;;;;;;21.69;37.06;100802.89;106167;1283;61455;-83
2023/01/28 10:49:14;;;;;;;;;;;;;;;21.70;37.15;100802.30;106119;1282;72433;-83
2023/01/28 10:51:40;;;;;;;;;;;;;;;21.70;37.15;100800.15;106105;1283;74485;-83
2023/01/28 10:54:32;;;;;;;;;;;;;;;21.70;37.09;100802.11;106105;1283;61614;-84
2023/01/28 10:57:00;;;;;;;;;;;;;;;21.70;37.21;100800.70;105757;1288;61657;-83
2023/01/28 10:59:26;;;;;;;;;;;;;;;21.70;37.09;100800.83;105615;1289;72569;-83
2023/01/28 11:02:10;;;;;;;;;;;;;;;21.71;37.14;100801.32;105795;1289;61884;-83
2023/01/28 11:04:36;;;;;;;;;;;;;;;21.71;36.93;100800.80;105680;1289;61293;-83
2023/01/28 11:07:02;;;;;;;;;;;;;;;21.71;37.13;100800.95;105587;1289;61241;-83
2023/01/28 11:09:30;;;;;;;;;;;;;;;21.72;37.24;100799.63;105567;1289;61288;-83
2023/01/28 11:11:56;;;;;;;;;;;;;;;21.72;37.13;100798.39;105565;1288;74724;-83
2023/01/28 11:14:23;;;;;;;;;;;;;;;21.72;37.17;100798.53;105600;1288;61558;-83
2023/01/28 11:16:49;;;;;;;;;;;;;;;21.72;37.04;100798.20;105544;1288;61428;-83
2023/01/28 11:19:16;;;;;;;;;;;;;;;21.72;37.03;100794.29;105547;1288;73517;-83
2023/01/28 11:21:46;;;;;;;;;;;;;;;21.72;37.02;100790.02;105693;1288;75477;-83
2023/01/28 11:24:13;;;;;;;;;;;;;;;21.72;37.13;100789.64;105574;1288;61231;-84
2023/01/28 11:26:39;;;;;;;;;;;;;;;21.71;36.99;100790.21;105697;1288;61270;-83
2023/01/28 11:29:04;;;;;;;;;;;;;;;21.71;37.03;100786.98;105712;1288;61267;-83
2023/01/28 11:31:30;;;;;;;;;;;;;;;21.71;37.12;100783.93;105568;1289;61349;-83
2023/01/28 11:33:56;;;;;;;;;;;;;;;21.71;37.03;100786.28;105770;1283;61310;-83
2023/01/28 11:36:26;;;;;;;;;;;;;;;21.71;37.12;100784.49;106139;1283;61151;-83
2023/01/28 11:38:56;;;;;;;;;;;;;;;21.71;37.17;100778.92;106141;1283;72252;-83
2023/01/28 11:41:28;;;;;;;;;;;;;;;21.71;37.10;100780.36;106199;1283;74311;-83
2023/01/28 11:43:54;;;;;;;;;;;;;;;21.72;37.07;100781.59;106456;1283;59846;-84
2023/01/28 11:46:25;;;;;;;;;;;;;;;21.72;37.02;100777.64;106425;1283;61104;-84
2023/01/28 11:48:53;;;;;;;;;;;;;;;21.72;37.13;100777.60;106058;1285;73444;-84
2023/01/28 11:51:24;;;;;;;;;;;;;;;21.72;37.06;100778.67;106024;1283;75489;-84
2023/01/28 11:53:52;;;;;;;;;;;;;;;21.73;37.11;100784.34;106071;1285;61134;-83
2023/01/28 11:56:37;;;;;;;;;;;;;;;21.73;37.19;100782.01;106064;1285;61326;-83
2023/01/28 11:59:10;;;;;;;;;;;;;;;21.73;37.27;100786.66;106054;1284;72439;-83
2023/01/28 12:01:41;;;;;;;;;;;;;;;21.73;37.14;100788.08;106031;1283;74103;-83
2023/01/28 12:04:36;;;;;;;;;;;;;;;21.74;37.13;100788.94;106047;1283;61118;-83
2023/01/28 12:07:25;;;;;;;;;;;;;;;21.73;37.20;100785.90;105680;1289;61384;-83
2023/01/28 12:09:50;;;;;;;;;;;;;;;21.74;37.05;100785.35;105199;1294;73332;-83
2023/01/28 12:12:19;;;;;;;;;;;;;;;21.74;37.10;100789.45;105228;1294;61308;-83
2023/01/28 12:14:50;;;;;;;;;;;;;;;21.74;37.15;100789.10;105203;1295;61333;-83
2023/01/28 12:17:39;;;;;;;;;;;;;;;21.74;37.17;100792.64;105215;1294;61154;-83
2023/01/28 12:20:07;;;;;;;;;;;;;;;21.75;37.14;100795.13;105088;1293;73448;-84
2023/01/28 12:22:35;;;;;;;;;;;;;;;21.75;37.10;100795.66;105205;1293;74335;-83
2023/01/28 12:25:11;;;;;;;;;;;;;;;21.75;37.24;100794.55;105243;1295;61178;-83
2023/01/28 12:27:59;;;;;;;;;;;;;;;21.75;37.17;100795.81;105232;1293;61182;-84
2023/01/28 12:30:25;;;;;;;;;;;;;;;21.75;37.08;100797.60;105181;1295;72575;-84
2023/01/28 12:33:11;;;;;;;;;;;;;;;21.75;37.20;100796.50;105265;1295;60159;-83
2023/01/28 12:35:49;;;;;;;;;;;;;;;21.76;37.14;100796.48;104759;1300;61587;-83
2023/01/28 12:38:21;;;;;;;;;;;;;;;21.76;37.11;100797.36;104723;1300;61343;-83
2023/01/28 12:41:04;;;;;;;;;;;;;;;21.77;37.12;100799.80;104675;1299;72262;-83
2023/01/28 12:43:41;;;;;;;;;;;;;;;21.78;37.15;100800.69;104837;1296;74490;-84
2023/01/28 12:46:25;;;;;;;;;;;;;;;21.78;37.21;100799.20;105000;1297;61360;-83
2023/01/28 12:48:53;;;;;;;;;;;;;;;21.78;37.11;100798.84;105178;1292;61407;-83
2023/01/28 12:51:20;;;;;;;;;;;;;;;21.80;37.06;100799.66;105211;1292;72310;-83
2023/01/28 12:53:56;;;;;;;;;;;;;;;21.80;37.13;100801.79;105313;1292;73429;-84
2023/01/28 12:56:32;;;;;;;;;;;;;;;21.80;37.00;100804.10;105364;1292;61134;-83
2023/01/28 12:58:59;;;;;;;;;;;;;;;21.80;37.10;100805.69;105293;1291;61213;-83